sensor_id;sensor_type;location;lat;lon;timestamp;P1;durP1;ratioP1;P2;durP2;ratioP2
5129;SDS011;2583;50.946;6.954;2023-07-24T00:02:23;4.10;;;3.80;;
5129;SDS011;2583;50.946;6.954;2023-07-24T00:04:50;4.40;;;3.80;;
5129;SDS011;2583;50.946;6.954;2023-07-24T00:07:16;3.60;;;3.30;;
5129;SDS011;2583;50.946;6.954;2023-07-24T00:09:43;3.63;;;3.30;;
5129;SDS011;2583;50.946;6.954;2023-07-24T00:12:10;3.00;;;2.80;;
5129;SDS011;2583;50.946;6.954;2023-07-24T00:14:37;3.43;;;3.23;;
5129;SDS011;2583;50.946;6.954;2023-07-24T00:17:03;3.33;;;3.13;;
5129;SDS011;2583;50.946;6.954;2023-07-24T00:19:31;4.43;;;3.77;;
5129;SDS011;2583;50.946;6.954;2023-07-24T00:21:57;3.10;;;2.90;;
5129;SDS011;2583;50.946;6.954;2023-07-24T00:24:24;3.00;;;2.70;;
5129;SDS011;2583;50.946;6.954;2023-07-24T00:26:51;3.47;;;3.17;;
5129;SDS011;2583;50.946;6.954;2023-07-24T00:29:18;3.53;;;3.33;;
5129;SDS011;2583;50.946;6.954;2023-07-24T00:31:44;3.60;;;3.07;;
5129;SDS011;2583;50.946;6.954;2023-07-24T00:34:11;2.67;;;2.47;;
5129;SDS011;2583;50.946;6.954;2023-07-24T00:36:38;3.30;;;2.97;;
5129;SDS011;2583;50.946;6.954;2023-07-24T00:39:04;3.03;;;2.83;;
5129;SDS011;2583;50.946;6.954;2023-07-24T00:41:32;3.03;;;2.50;;
5129;SDS011;2583;50.946;6.954;2023-07-24T00:43:59;2.97;;;2.77;;
5129;SDS011;2583;50.946;6.954;2023-07-24T00:46:26;3.47;;;2.93;;
5129;SDS011;2583;50.946;6.954;2023-07-24T00:48:59;3.67;;;3.33;;
5129;SDS011;2583;50.946;6.954;2023-07-24T00:54:23;3.27;;;2.97;;
5129;SDS011;2583;50.946;6.954;2023-07-24T00:56:50;2.93;;;2.73;;
5129;SDS011;2583;50.946;6.954;2023-07-24T00:59:17;3.17;;;2.97;;
5129;SDS011;2583;50.946;6.954;2023-07-24T01:01:44;3.17;;;2.60;;
5129;SDS011;2583;50.946;6.954;2023-07-24T01:04:12;3.83;;;3.43;;
5129;SDS011;2583;50.946;6.954;2023-07-24T01:06:40;3.00;;;2.70;;
5129;SDS011;2583;50.946;6.954;2023-07-24T01:09:06;3.17;;;2.97;;
5129;SDS011;2583;50.946;6.954;2023-07-24T01:11:37;3.87;;;2.80;;
5129;SDS011;2583;50.946;6.954;2023-07-24T01:14:21;3.20;;;2.90;;
5129;SDS011;2583;50.946;6.954;2023-07-24T01:16:52;4.50;;;3.13;;
5129;SDS011;2583;50.946;6.954;2023-07-24T01:22:12;3.60;;;3.30;;
5129;SDS011;2583;50.946;6.954;2023-07-24T01:27:52;3.47;;;3.27;;
5129;SDS011;2583;50.946;6.954;2023-07-24T01:30:19;3.17;;;2.97;;
5129;SDS011;2583;50.946;6.954;2023-07-24T01:32:47;4.80;;;3.47;;
5129;SDS011;2583;50.946;6.954;2023-07-24T01:35:14;3.53;;;3.23;;
5129;SDS011;2583;50.946;6.954;2023-07-24T01:37:42;3.60;;;3.40;;
5129;SDS011;2583;50.946;6.954;2023-07-24T01:40:10;4.43;;;3.40;;
5129;SDS011;2583;50.946;6.954;2023-07-24T01:42:37;3.83;;;3.40;;
5129;SDS011;2583;50.946;6.954;2023-07-24T01:45:04;3.20;;;3.00;;
5129;SDS011;2583;50.946;6.954;2023-07-24T01:47:32;3.50;;;3.30;;
5129;SDS011;2583;50.946;6.954;2023-07-24T01:49:59;3.37;;;3.17;;
5129;SDS011;2583;50.946;6.954;2023-07-24T01:52:26;3.47;;;3.17;;
5129;SDS011;2583;50.946;6.954;2023-07-24T01:54:53;4.50;;;3.30;;
5129;SDS011;2583;50.946;6.954;2023-07-24T01:57:19;4.03;;;3.60;;
5129;SDS011;2583;50.946;6.954;2023-07-24T01:59:46;3.90;;;3.43;;
5129;SDS011;2583;50.946;6.954;2023-07-24T02:02:15;3.23;;;2.80;;
5129;SDS011;2583;50.946;6.954;2023-07-24T02:04:41;3.47;;;3.27;;
5129;SDS011;2583;50.946;6.954;2023-07-24T02:07:08;5.83;;;3.37;;
5129;SDS011;2583;50.946;6.954;2023-07-24T02:09:35;7.47;;;3.60;;
5129;SDS011;2583;50.946;6.954;2023-07-24T02:12:02;3.33;;;3.07;;
5129;SDS011;2583;50.946;6.954;2023-07-24T02:14:29;3.27;;;3.00;;
5129;SDS011;2583;50.946;6.954;2023-07-24T02:16:55;3.43;;;3.23;;
5129;SDS011;2583;50.946;6.954;2023-07-24T02:19:22;4.10;;;3.20;;
5129;SDS011;2583;50.946;6.954;2023-07-24T02:21:49;3.57;;;3.37;;
5129;SDS011;2583;50.946;6.954;2023-07-24T02:24:16;4.13;;;3.83;;
5129;SDS011;2583;50.946;6.954;2023-07-24T02:26:42;3.60;;;3.23;;
5129;SDS011;2583;50.946;6.954;2023-07-24T02:29:09;3.63;;;3.33;;
5129;SDS011;2583;50.946;6.954;2023-07-24T02:31:36;4.63;;;3.77;;
5129;SDS011;2583;50.946;6.954;2023-07-24T02:34:03;3.50;;;3.20;;
5129;SDS011;2583;50.946;6.954;2023-07-24T02:36:29;3.93;;;3.57;;
5129;SDS011;2583;50.946;6.954;2023-07-24T02:38:57;4.40;;;3.03;;
5129;SDS011;2583;50.946;6.954;2023-07-24T02:41:23;3.83;;;3.53;;
5129;SDS011;2583;50.946;6.954;2023-07-24T02:43:50;4.57;;;3.53;;
5129;SDS011;2583;50.946;6.954;2023-07-24T02:46:17;4.23;;;3.70;;
5129;SDS011;2583;50.946;6.954;2023-07-24T02:48:44;4.00;;;3.70;;
5129;SDS011;2583;50.946;6.954;2023-07-24T02:51:10;4.10;;;3.70;;
5129;SDS011;2583;50.946;6.954;2023-07-24T02:53:37;3.90;;;3.50;;
5129;SDS011;2583;50.946;6.954;2023-07-24T02:56:04;4.50;;;3.67;;
5129;SDS011;2583;50.946;6.954;2023-07-24T02:58:30;3.87;;;3.50;;
5129;SDS011;2583;50.946;6.954;2023-07-24T03:01:04;4.70;;;4.23;;
5129;SDS011;2583;50.946;6.954;2023-07-24T03:03:33;3.20;;;2.90;;
5129;SDS011;2583;50.946;6.954;2023-07-24T03:06:01;3.80;;;3.50;;
5129;SDS011;2583;50.946;6.954;2023-07-24T03:08:28;4.40;;;4.00;;
5129;SDS011;2583;50.946;6.954;2023-07-24T03:10:54;4.43;;;4.13;;
5129;SDS011;2583;50.946;6.954;2023-07-24T03:13:21;4.40;;;4.00;;
5129;SDS011;2583;50.946;6.954;2023-07-24T03:15:55;6.20;;;3.33;;
5129;SDS011;2583;50.946;6.954;2023-07-24T03:18:22;4.90;;;3.60;;
5129;SDS011;2583;50.946;6.954;2023-07-24T03:20:50;5.10;;;4.60;;
5129;SDS011;2583;50.946;6.954;2023-07-24T03:23:16;4.13;;;3.57;;
5129;SDS011;2583;50.946;6.954;2023-07-24T03:25:43;3.83;;;3.37;;
5129;SDS011;2583;50.946;6.954;2023-07-24T03:28:10;4.33;;;4.03;;
5129;SDS011;2583;50.946;6.954;2023-07-24T03:30:37;4.77;;;4.23;;
5129;SDS011;2583;50.946;6.954;2023-07-24T03:33:04;3.87;;;3.57;;
5129;SDS011;2583;50.946;6.954;2023-07-24T03:35:32;4.30;;;4.00;;
5129;SDS011;2583;50.946;6.954;2023-07-24T03:37:59;3.90;;;3.50;;
5129;SDS011;2583;50.946;6.954;2023-07-24T03:40:26;4.87;;;4.47;;
5129;SDS011;2583;50.946;6.954;2023-07-24T03:42:53;7.60;;;4.10;;
5129;SDS011;2583;50.946;6.954;2023-07-24T03:45:20;8.80;;;4.70;;
5129;SDS011;2583;50.946;6.954;2023-07-24T03:47:46;7.23;;;4.43;;
5129;SDS011;2583;50.946;6.954;2023-07-24T03:50:13;5.00;;;4.50;;
5129;SDS011;2583;50.946;6.954;2023-07-24T03:52:40;8.37;;;4.13;;
5129;SDS011;2583;50.946;6.954;2023-07-24T03:55:07;5.03;;;4.20;;
5129;SDS011;2583;50.946;6.954;2023-07-24T03:57:35;4.83;;;4.43;;
5129;SDS011;2583;50.946;6.954;2023-07-24T04:00:02;5.33;;;4.10;;
5129;SDS011;2583;50.946;6.954;2023-07-24T04:02:29;7.43;;;4.10;;
5129;SDS011;2583;50.946;6.954;2023-07-24T04:04:56;5.27;;;3.97;;
5129;SDS011;2583;50.946;6.954;2023-07-24T04:07:23;4.43;;;3.97;;
5129;SDS011;2583;50.946;6.954;2023-07-24T04:09:50;4.80;;;4.33;;
5129;SDS011;2583;50.946;6.954;2023-07-24T04:12:16;5.87;;;4.67;;
5129;SDS011;2583;50.946;6.954;2023-07-24T04:14:43;3.83;;;3.50;;
5129;SDS011;2583;50.946;6.954;2023-07-24T04:17:10;4.60;;;4.13;;
5129;SDS011;2583;50.946;6.954;2023-07-24T04:19:36;5.60;;;4.10;;
5129;SDS011;2583;50.946;6.954;2023-07-24T04:22:03;4.60;;;4.13;;
5129;SDS011;2583;50.946;6.954;2023-07-24T04:24:30;5.73;;;3.90;;
5129;SDS011;2583;50.946;6.954;2023-07-24T04:26:57;4.10;;;3.80;;
5129;SDS011;2583;50.946;6.954;2023-07-24T04:29:23;4.27;;;3.87;;
5129;SDS011;2583;50.946;6.954;2023-07-24T04:31:52;4.17;;;3.87;;
5129;SDS011;2583;50.946;6.954;2023-07-24T04:34:19;5.53;;;4.00;;
5129;SDS011;2583;50.946;6.954;2023-07-24T04:36:45;3.80;;;3.50;;
5129;SDS011;2583;50.946;6.954;2023-07-24T04:39:12;4.87;;;4.00;;
5129;SDS011;2583;50.946;6.954;2023-07-24T04:41:39;3.83;;;3.47;;
5129;SDS011;2583;50.946;6.954;2023-07-24T04:44:05;4.20;;;3.90;;
5129;SDS011;2583;50.946;6.954;2023-07-24T04:46:32;4.30;;;3.43;;
5129;SDS011;2583;50.946;6.954;2023-07-24T04:49:00;5.83;;;4.20;;
5129;SDS011;2583;50.946;6.954;2023-07-24T04:51:26;6.43;;;4.13;;
5129;SDS011;2583;50.946;6.954;2023-07-24T04:53:53;4.43;;;4.13;;
5129;SDS011;2583;50.946;6.954;2023-07-24T04:56:20;4.60;;;4.20;;
5129;SDS011;2583;50.946;6.954;2023-07-24T04:58:47;4.67;;;3.97;;
5129;SDS011;2583;50.946;6.954;2023-07-24T05:01:13;5.03;;;3.57;;
5129;SDS011;2583;50.946;6.954;2023-07-24T05:03:40;3.50;;;3.20;;
5129;SDS011;2583;50.946;6.954;2023-07-24T05:06:07;5.13;;;4.07;;
5129;SDS011;2583;50.946;6.954;2023-07-24T05:08:33;4.33;;;4.03;;
5129;SDS011;2583;50.946;6.954;2023-07-24T05:11:00;5.00;;;4.50;;
5129;SDS011;2583;50.946;6.954;2023-07-24T05:13:27;5.13;;;4.20;;
5129;SDS011;2583;50.946;6.954;2023-07-24T05:15:54;4.30;;;3.90;;
5129;SDS011;2583;50.946;6.954;2023-07-24T05:18:20;4.33;;;4.03;;
5129;SDS011;2583;50.946;6.954;2023-07-24T05:20:48;4.43;;;4.00;;
5129;SDS011;2583;50.946;6.954;2023-07-24T05:23:17;4.00;;;3.70;;
5129;SDS011;2583;50.946;6.954;2023-07-24T05:25:44;6.30;;;4.10;;
5129;SDS011;2583;50.946;6.954;2023-07-24T05:28:11;5.60;;;4.13;;
5129;SDS011;2583;50.946;6.954;2023-07-24T05:30:38;4.20;;;3.70;;
5129;SDS011;2583;50.946;6.954;2023-07-24T05:33:05;4.17;;;3.67;;
5129;SDS011;2583;50.946;6.954;2023-07-24T05:35:32;5.60;;;3.80;;
5129;SDS011;2583;50.946;6.954;2023-07-24T05:37:58;4.50;;;4.10;;
5129;SDS011;2583;50.946;6.954;2023-07-24T05:40:25;5.53;;;3.90;;
5129;SDS011;2583;50.946;6.954;2023-07-24T05:42:52;4.90;;;4.53;;
5129;SDS011;2583;50.946;6.954;2023-07-24T05:45:18;5.47;;;4.47;;
5129;SDS011;2583;50.946;6.954;2023-07-24T05:47:45;5.60;;;4.50;;
5129;SDS011;2583;50.946;6.954;2023-07-24T05:50:12;5.63;;;4.70;;
5129;SDS011;2583;50.946;6.954;2023-07-24T05:52:40;4.87;;;4.10;;
5129;SDS011;2583;50.946;6.954;2023-07-24T05:55:07;5.40;;;4.67;;
5129;SDS011;2583;50.946;6.954;2023-07-24T05:57:34;6.30;;;4.53;;
5129;SDS011;2583;50.946;6.954;2023-07-24T06:00:05;5.67;;;4.33;;
5129;SDS011;2583;50.946;6.954;2023-07-24T06:02:33;5.17;;;4.67;;
5129;SDS011;2583;50.946;6.954;2023-07-24T06:04:59;5.43;;;4.93;;
5129;SDS011;2583;50.946;6.954;2023-07-24T06:07:26;4.23;;;3.83;;
5129;SDS011;2583;50.946;6.954;2023-07-24T06:09:53;4.37;;;4.17;;
5129;SDS011;2583;50.946;6.954;2023-07-24T06:12:20;4.30;;;4.00;;
5129;SDS011;2583;50.946;6.954;2023-07-24T06:14:47;7.17;;;5.07;;
5129;SDS011;2583;50.946;6.954;2023-07-24T06:17:14;4.80;;;4.40;;
5129;SDS011;2583;50.946;6.954;2023-07-24T06:19:40;4.60;;;4.20;;
5129;SDS011;2583;50.946;6.954;2023-07-24T06:22:07;4.47;;;4.07;;
5129;SDS011;2583;50.946;6.954;2023-07-24T06:24:34;8.53;;;4.90;;
5129;SDS011;2583;50.946;6.954;2023-07-24T06:27:00;4.23;;;3.83;;
5129;SDS011;2583;50.946;6.954;2023-07-24T06:29:27;4.90;;;4.40;;
5129;SDS011;2583;50.946;6.954;2023-07-24T06:31:54;5.50;;;5.10;;
5129;SDS011;2583;50.946;6.954;2023-07-24T06:34:21;4.70;;;4.30;;
5129;SDS011;2583;50.946;6.954;2023-07-24T06:36:48;5.90;;;4.33;;
5129;SDS011;2583;50.946;6.954;2023-07-24T06:39:15;4.53;;;4.13;;
5129;SDS011;2583;50.946;6.954;2023-07-24T06:41:42;4.80;;;4.13;;
5129;SDS011;2583;50.946;6.954;2023-07-24T06:44:08;7.40;;;4.43;;
5129;SDS011;2583;50.946;6.954;2023-07-24T06:46:35;5.03;;;4.73;;
5129;SDS011;2583;50.946;6.954;2023-07-24T06:49:02;6.33;;;4.30;;
5129;SDS011;2583;50.946;6.954;2023-07-24T06:51:29;4.57;;;4.20;;
5129;SDS011;2583;50.946;6.954;2023-07-24T06:53:56;4.60;;;4.30;;
5129;SDS011;2583;50.946;6.954;2023-07-24T06:56:22;4.67;;;3.83;;
5129;SDS011;2583;50.946;6.954;2023-07-24T06:58:49;5.60;;;3.37;;
5129;SDS011;2583;50.946;6.954;2023-07-24T07:01:16;4.77;;;4.43;;
5129;SDS011;2583;50.946;6.954;2023-07-24T07:03:43;4.20;;;3.63;;
5129;SDS011;2583;50.946;6.954;2023-07-24T07:06:10;3.67;;;3.23;;
5129;SDS011;2583;50.946;6.954;2023-07-24T07:08:53;4.10;;;3.70;;
5129;SDS011;2583;50.946;6.954;2023-07-24T07:11:20;3.67;;;3.37;;
5129;SDS011;2583;50.946;6.954;2023-07-24T07:13:47;4.20;;;3.00;;
5129;SDS011;2583;50.946;6.954;2023-07-24T07:16:13;3.50;;;3.20;;
5129;SDS011;2583;50.946;6.954;2023-07-24T07:18:43;3.77;;;3.40;;
5129;SDS011;2583;50.946;6.954;2023-07-24T07:21:09;2.93;;;2.63;;
5129;SDS011;2583;50.946;6.954;2023-07-24T07:23:36;3.70;;;2.70;;
5129;SDS011;2583;50.946;6.954;2023-07-24T07:26:03;3.40;;;2.90;;
5129;SDS011;2583;50.946;6.954;2023-07-24T07:28:29;3.47;;;3.27;;
5129;SDS011;2583;50.946;6.954;2023-07-24T07:30:56;3.00;;;2.80;;
5129;SDS011;2583;50.946;6.954;2023-07-24T07:33:23;3.67;;;3.37;;
5129;SDS011;2583;50.946;6.954;2023-07-24T07:35:51;3.30;;;3.00;;
5129;SDS011;2583;50.946;6.954;2023-07-24T07:38:17;3.03;;;2.73;;
5129;SDS011;2583;50.946;6.954;2023-07-24T07:40:44;3.20;;;2.80;;
5129;SDS011;2583;50.946;6.954;2023-07-24T07:43:11;3.10;;;2.90;;
5129;SDS011;2583;50.946;6.954;2023-07-24T07:45:38;8.13;;;3.30;;
5129;SDS011;2583;50.946;6.954;2023-07-24T07:48:05;3.43;;;3.13;;
5129;SDS011;2583;50.946;6.954;2023-07-24T07:50:32;2.93;;;2.73;;
5129;SDS011;2583;50.946;6.954;2023-07-24T07:52:58;3.40;;;2.27;;
5129;SDS011;2583;50.946;6.954;2023-07-24T07:55:25;3.80;;;2.80;;
5129;SDS011;2583;50.946;6.954;2023-07-24T07:57:52;3.07;;;2.87;;
5129;SDS011;2583;50.946;6.954;2023-07-24T08:00:19;3.67;;;3.33;;
5129;SDS011;2583;50.946;6.954;2023-07-24T08:02:45;3.67;;;3.37;;
5129;SDS011;2583;50.946;6.954;2023-07-24T08:05:12;4.00;;;3.70;;
5129;SDS011;2583;50.946;6.954;2023-07-24T08:07:45;3.17;;;2.97;;
5129;SDS011;2583;50.946;6.954;2023-07-24T08:10:12;3.03;;;2.73;;
5129;SDS011;2583;50.946;6.954;2023-07-24T08:12:42;4.73;;;3.30;;
5129;SDS011;2583;50.946;6.954;2023-07-24T08:15:09;3.87;;;3.57;;
5129;SDS011;2583;50.946;6.954;2023-07-24T08:17:36;3.93;;;3.37;;
5129;SDS011;2583;50.946;6.954;2023-07-24T08:20:04;3.67;;;3.37;;
5129;SDS011;2583;50.946;6.954;2023-07-24T08:22:31;4.77;;;3.80;;
5129;SDS011;2583;50.946;6.954;2023-07-24T08:24:58;5.40;;;3.43;;
5129;SDS011;2583;50.946;6.954;2023-07-24T08:27:25;4.00;;;3.60;;
5129;SDS011;2583;50.946;6.954;2023-07-24T08:29:52;4.70;;;4.10;;
5129;SDS011;2583;50.946;6.954;2023-07-24T08:32:19;4.20;;;3.80;;
5129;SDS011;2583;50.946;6.954;2023-07-24T08:34:47;4.40;;;3.13;;
5129;SDS011;2583;50.946;6.954;2023-07-24T08:37:13;3.73;;;3.43;;
5129;SDS011;2583;50.946;6.954;2023-07-24T08:39:40;3.80;;;3.20;;
5129;SDS011;2583;50.946;6.954;2023-07-24T08:42:11;4.13;;;3.83;;
5129;SDS011;2583;50.946;6.954;2023-07-24T08:44:38;7.27;;;4.07;;
5129;SDS011;2583;50.946;6.954;2023-07-24T08:47:06;3.90;;;3.60;;
5129;SDS011;2583;50.946;6.954;2023-07-24T08:49:38;4.37;;;3.63;;
5129;SDS011;2583;50.946;6.954;2023-07-24T08:52:08;5.73;;;3.63;;
5129;SDS011;2583;50.946;6.954;2023-07-24T08:54:52;3.57;;;3.27;;
5129;SDS011;2583;50.946;6.954;2023-07-24T08:57:21;3.30;;;3.00;;
5129;SDS011;2583;50.946;6.954;2023-07-24T08:59:47;3.90;;;3.60;;
5129;SDS011;2583;50.946;6.954;2023-07-24T09:02:14;4.37;;;3.83;;
5129;SDS011;2583;50.946;6.954;2023-07-24T09:04:41;4.50;;;4.10;;
5129;SDS011;2583;50.946;6.954;2023-07-24T09:07:08;3.50;;;3.20;;
5129;SDS011;2583;50.946;6.954;2023-07-24T09:09:35;3.13;;;2.93;;
5129;SDS011;2583;50.946;6.954;2023-07-24T09:12:02;7.03;;;3.67;;
5129;SDS011;2583;50.946;6.954;2023-07-24T09:14:29;3.57;;;3.37;;
5129;SDS011;2583;50.946;6.954;2023-07-24T09:17:03;3.87;;;3.57;;
5129;SDS011;2583;50.946;6.954;2023-07-24T09:19:30;3.80;;;3.50;;
5129;SDS011;2583;50.946;6.954;2023-07-24T09:22:13;3.63;;;3.33;;
5129;SDS011;2583;50.946;6.954;2023-07-24T09:24:54;3.40;;;3.10;;
5129;SDS011;2583;50.946;6.954;2023-07-24T09:27:27;3.03;;;2.83;;
5129;SDS011;2583;50.946;6.954;2023-07-24T09:29:57;3.27;;;3.07;;
5129;SDS011;2583;50.946;6.954;2023-07-24T09:32:25;3.07;;;2.87;;
5129;SDS011;2583;50.946;6.954;2023-07-24T09:34:53;8.53;;;4.27;;
5129;SDS011;2583;50.946;6.954;2023-07-24T09:37:30;3.07;;;2.87;;
5129;SDS011;2583;50.946;6.954;2023-07-24T09:39:58;3.97;;;3.67;;
5129;SDS011;2583;50.946;6.954;2023-07-24T09:42:29;2.50;;;2.30;;
5129;SDS011;2583;50.946;6.954;2023-07-24T09:45:06;2.73;;;2.53;;
5129;SDS011;2583;50.946;6.954;2023-07-24T09:47:34;2.83;;;2.53;;
5129;SDS011;2583;50.946;6.954;2023-07-24T09:50:21;3.03;;;2.83;;
5129;SDS011;2583;50.946;6.954;2023-07-24T09:52:49;3.03;;;2.73;;
5129;SDS011;2583;50.946;6.954;2023-07-24T09:55:21;3.30;;;3.00;;
5129;SDS011;2583;50.946;6.954;2023-07-24T09:57:56;3.53;;;3.17;;
5129;SDS011;2583;50.946;6.954;2023-07-24T10:00:24;3.33;;;3.03;;
5129;SDS011;2583;50.946;6.954;2023-07-24T10:02:51;4.03;;;3.60;;
5129;SDS011;2583;50.946;6.954;2023-07-24T10:05:19;2.90;;;2.70;;
5129;SDS011;2583;50.946;6.954;2023-07-24T10:07:46;2.60;;;2.40;;
5129;SDS011;2583;50.946;6.954;2023-07-24T10:10:13;2.93;;;2.73;;
5129;SDS011;2583;50.946;6.954;2023-07-24T10:12:41;3.87;;;3.47;;
5129;SDS011;2583;50.946;6.954;2023-07-24T10:15:08;4.20;;;2.37;;
5129;SDS011;2583;50.946;6.954;2023-07-24T10:17:41;3.07;;;2.77;;
5129;SDS011;2583;50.946;6.954;2023-07-24T10:20:09;3.50;;;3.30;;
5129;SDS011;2583;50.946;6.954;2023-07-24T10:22:40;2.90;;;2.60;;
5129;SDS011;2583;50.946;6.954;2023-07-24T10:25:08;2.93;;;2.63;;
5129;SDS011;2583;50.946;6.954;2023-07-24T10:27:41;3.30;;;3.00;;
5129;SDS011;2583;50.946;6.954;2023-07-24T10:30:10;2.77;;;2.57;;
5129;SDS011;2583;50.946;6.954;2023-07-24T10:33:03;2.73;;;2.53;;
5129;SDS011;2583;50.946;6.954;2023-07-24T10:35:37;3.23;;;3.03;;
5129;SDS011;2583;50.946;6.954;2023-07-24T10:38:10;3.00;;;2.80;;
5129;SDS011;2583;50.946;6.954;2023-07-24T10:40:37;3.37;;;3.17;;
5129;SDS011;2583;50.946;6.954;2023-07-24T10:43:07;3.07;;;2.80;;
5129;SDS011;2583;50.946;6.954;2023-07-24T10:48:12;3.03;;;2.83;;
5129;SDS011;2583;50.946;6.954;2023-07-24T10:50:43;4.17;;;3.80;;
5129;SDS011;2583;50.946;6.954;2023-07-24T10:53:20;3.00;;;2.70;;
5129;SDS011;2583;50.946;6.954;2023-07-24T10:55:48;4.40;;;3.50;;
5129;SDS011;2583;50.946;6.954;2023-07-24T10:58:17;2.70;;;2.50;;
5129;SDS011;2583;50.946;6.954;2023-07-24T11:00:44;2.60;;;2.40;;
5129;SDS011;2583;50.946;6.954;2023-07-24T11:03:12;3.07;;;2.83;;
5129;SDS011;2583;50.946;6.954;2023-07-24T11:05:40;3.27;;;3.00;;
5129;SDS011;2583;50.946;6.954;2023-07-24T11:08:12;6.67;;;3.00;;
5129;SDS011;2583;50.946;6.954;2023-07-24T11:10:46;3.73;;;3.30;;
5129;SDS011;2583;50.946;6.954;2023-07-24T11:13:15;3.33;;;3.10;;
5129;SDS011;2583;50.946;6.954;2023-07-24T11:15:43;4.00;;;3.70;;
5129;SDS011;2583;50.946;6.954;2023-07-24T11:18:10;3.57;;;3.27;;
5129;SDS011;2583;50.946;6.954;2023-07-24T11:20:53;6.30;;;3.60;;
5129;SDS011;2583;50.946;6.954;2023-07-24T11:23:22;4.37;;;4.07;;
5129;SDS011;2583;50.946;6.954;2023-07-24T11:25:50;4.70;;;4.07;;
5129;SDS011;2583;50.946;6.954;2023-07-24T11:28:20;3.83;;;3.50;;
5129;SDS011;2583;50.946;6.954;2023-07-24T11:30:47;3.80;;;3.50;;
5129;SDS011;2583;50.946;6.954;2023-07-24T11:33:15;3.30;;;3.00;;
5129;SDS011;2583;50.946;6.954;2023-07-24T11:35:45;3.20;;;3.00;;
5129;SDS011;2583;50.946;6.954;2023-07-24T11:38:12;4.70;;;3.30;;
5129;SDS011;2583;50.946;6.954;2023-07-24T11:40:40;4.20;;;2.83;;
5129;SDS011;2583;50.946;6.954;2023-07-24T11:43:16;2.87;;;2.67;;
5129;SDS011;2583;50.946;6.954;2023-07-24T11:45:45;27.57;;;4.70;;
5129;SDS011;2583;50.946;6.954;2023-07-24T11:48:14;0.80;;;0.30;;
5129;SDS011;2583;50.946;6.954;2023-07-24T11:50:42;0.80;;;0.30;;
5129;SDS011;2583;50.946;6.954;2023-07-24T11:53:29;0.70;;;0.30;;
5129;SDS011;2583;50.946;6.954;2023-07-24T11:55:58;0.70;;;0.30;;
5129;SDS011;2583;50.946;6.954;2023-07-24T11:58:26;0.80;;;0.40;;
5129;SDS011;2583;50.946;6.954;2023-07-24T12:00:53;0.70;;;0.30;;
5129;SDS011;2583;50.946;6.954;2023-07-24T12:05:50;0.70;;;0.30;;
5129;SDS011;2583;50.946;6.954;2023-07-24T12:08:19;0.77;;;0.57;;
5129;SDS011;2583;50.946;6.954;2023-07-24T12:10:48;0.70;;;0.40;;
5129;SDS011;2583;50.946;6.954;2023-07-24T12:13:15;0.70;;;0.30;;
5129;SDS011;2583;50.946;6.954;2023-07-24T12:15:45;0.70;;;0.30;;
5129;SDS011;2583;50.946;6.954;2023-07-24T12:18:12;0.70;;;0.30;;
5129;SDS011;2583;50.946;6.954;2023-07-24T12:20:39;0.70;;;0.30;;
5129;SDS011;2583;50.946;6.954;2023-07-24T12:23:06;0.70;;;0.30;;
5129;SDS011;2583;50.946;6.954;2023-07-24T12:25:33;0.70;;;0.30;;
5129;SDS011;2583;50.946;6.954;2023-07-24T12:27:59;0.70;;;0.30;;
5129;SDS011;2583;50.946;6.954;2023-07-24T12:30:26;0.70;;;0.30;;
5129;SDS011;2583;50.946;6.954;2023-07-24T12:32:53;0.70;;;0.50;;
5129;SDS011;2583;50.946;6.954;2023-07-24T12:35:20;0.70;;;0.30;;
5129;SDS011;2583;50.946;6.954;2023-07-24T12:37:47;0.70;;;0.30;;
5129;SDS011;2583;50.946;6.954;2023-07-24T12:40:13;0.70;;;0.30;;
5129;SDS011;2583;50.946;6.954;2023-07-24T12:42:40;0.70;;;0.30;;
5129;SDS011;2583;50.946;6.954;2023-07-24T12:45:07;0.70;;;0.30;;
5129;SDS011;2583;50.946;6.954;2023-07-24T12:47:34;0.70;;;0.40;;
5129;SDS011;2583;50.946;6.954;2023-07-24T12:50:01;0.70;;;0.33;;
5129;SDS011;2583;50.946;6.954;2023-07-24T12:52:32;0.70;;;0.30;;
5129;SDS011;2583;50.946;6.954;2023-07-24T12:54:59;0.70;;;0.30;;
5129;SDS011;2583;50.946;6.954;2023-07-24T12:57:28;0.70;;;0.30;;
5129;SDS011;2583;50.946;6.954;2023-07-24T12:59:55;0.70;;;0.30;;
5129;SDS011;2583;50.946;6.954;2023-07-24T13:02:22;0.70;;;0.30;;
5129;SDS011;2583;50.946;6.954;2023-07-24T13:04:48;0.70;;;0.30;;
5129;SDS011;2583;50.946;6.954;2023-07-24T13:07:15;0.70;;;0.30;;
5129;SDS011;2583;50.946;6.954;2023-07-24T13:09:42;0.70;;;0.30;;
5129;SDS011;2583;50.946;6.954;2023-07-24T13:12:10;0.70;;;0.40;;
5129;SDS011;2583;50.946;6.954;2023-07-24T13:14:37;0.70;;;0.30;;
5129;SDS011;2583;50.946;6.954;2023-07-24T13:17:09;0.70;;;0.30;;
5129;SDS011;2583;50.946;6.954;2023-07-24T13:19:36;0.70;;;0.40;;
5129;SDS011;2583;50.946;6.954;2023-07-24T13:22:02;0.70;;;0.30;;
5129;SDS011;2583;50.946;6.954;2023-07-24T13:24:30;0.70;;;0.30;;
5129;SDS011;2583;50.946;6.954;2023-07-24T13:26:57;0.70;;;0.30;;
5129;SDS011;2583;50.946;6.954;2023-07-24T13:29:23;0.70;;;0.30;;
5129;SDS011;2583;50.946;6.954;2023-07-24T13:31:52;0.70;;;0.30;;
5129;SDS011;2583;50.946;6.954;2023-07-24T13:34:19;0.70;;;0.30;;
5129;SDS011;2583;50.946;6.954;2023-07-24T13:36:46;0.70;;;0.30;;
5129;SDS011;2583;50.946;6.954;2023-07-24T13:39:13;0.70;;;0.30;;
5129;SDS011;2583;50.946;6.954;2023-07-24T13:41:40;0.70;;;0.30;;
5129;SDS011;2583;50.946;6.954;2023-07-24T13:44:08;2.47;;;1.40;;
5129;SDS011;2583;50.946;6.954;2023-07-24T13:46:35;1.80;;;1.57;;
5129;SDS011;2583;50.946;6.954;2023-07-24T13:49:05;2.90;;;2.43;;
5129;SDS011;2583;50.946;6.954;2023-07-24T13:51:33;2.70;;;2.50;;
5129;SDS011;2583;50.946;6.954;2023-07-24T13:53:59;4.60;;;2.50;;
5129;SDS011;2583;50.946;6.954;2023-07-24T13:56:28;2.30;;;1.90;;
5129;SDS011;2583;50.946;6.954;2023-07-24T13:58:59;2.10;;;1.83;;
5129;SDS011;2583;50.946;6.954;2023-07-24T14:01:26;1.90;;;1.50;;
5129;SDS011;2583;50.946;6.954;2023-07-24T14:03:53;2.07;;;1.70;;
5129;SDS011;2583;50.946;6.954;2023-07-24T14:06:20;3.20;;;2.10;;
5129;SDS011;2583;50.946;6.954;2023-07-24T14:08:47;3.40;;;2.40;;
5129;SDS011;2583;50.946;6.954;2023-07-24T14:11:13;3.27;;;2.07;;
5129;SDS011;2583;50.946;6.954;2023-07-24T14:13:40;2.40;;;1.57;;
5129;SDS011;2583;50.946;6.954;2023-07-24T14:16:07;5.23;;;2.10;;
5129;SDS011;2583;50.946;6.954;2023-07-24T14:18:34;3.30;;;2.70;;
5129;SDS011;2583;50.946;6.954;2023-07-24T14:21:00;2.60;;;2.40;;
5129;SDS011;2583;50.946;6.954;2023-07-24T14:23:27;3.03;;;2.73;;
5129;SDS011;2583;50.946;6.954;2023-07-24T14:25:54;4.37;;;2.50;;
5129;SDS011;2583;50.946;6.954;2023-07-24T14:28:21;3.30;;;2.07;;
5129;SDS011;2583;50.946;6.954;2023-07-24T14:30:47;1.93;;;1.67;;
5129;SDS011;2583;50.946;6.954;2023-07-24T14:33:14;2.20;;;2.00;;
5129;SDS011;2583;50.946;6.954;2023-07-24T14:35:41;2.00;;;1.40;;
5129;SDS011;2583;50.946;6.954;2023-07-24T14:38:08;1.97;;;1.67;;
5129;SDS011;2583;50.946;6.954;2023-07-24T14:40:35;2.03;;;1.37;;
5129;SDS011;2583;50.946;6.954;2023-07-24T14:43:01;2.00;;;1.80;;
5129;SDS011;2583;50.946;6.954;2023-07-24T14:45:33;4.93;;;1.17;;
5129;SDS011;2583;50.946;6.954;2023-07-24T14:47:59;2.13;;;1.57;;
5129;SDS011;2583;50.946;6.954;2023-07-24T14:50:26;2.30;;;2.20;;
5129;SDS011;2583;50.946;6.954;2023-07-24T14:52:54;1.80;;;1.20;;
5129;SDS011;2583;50.946;6.954;2023-07-24T14:55:20;1.60;;;1.50;;
5129;SDS011;2583;50.946;6.954;2023-07-24T14:57:47;2.03;;;1.50;;
5129;SDS011;2583;50.946;6.954;2023-07-24T15:00:15;3.63;;;1.60;;
5129;SDS011;2583;50.946;6.954;2023-07-24T15:02:42;2.03;;;1.60;;
5129;SDS011;2583;50.946;6.954;2023-07-24T15:05:10;2.47;;;2.27;;
5129;SDS011;2583;50.946;6.954;2023-07-24T15:07:37;2.87;;;2.13;;
5129;SDS011;2583;50.946;6.954;2023-07-24T15:10:04;3.07;;;2.40;;
5129;SDS011;2583;50.946;6.954;2023-07-24T15:12:31;2.33;;;1.53;;
5129;SDS011;2583;50.946;6.954;2023-07-24T15:14:58;6.50;;;1.50;;
5129;SDS011;2583;50.946;6.954;2023-07-24T15:17:25;1.63;;;1.53;;
5129;SDS011;2583;50.946;6.954;2023-07-24T15:19:52;2.03;;;1.77;;
5129;SDS011;2583;50.946;6.954;2023-07-24T15:22:19;1.77;;;1.37;;
5129;SDS011;2583;50.946;6.954;2023-07-24T15:24:46;1.57;;;1.47;;
5129;SDS011;2583;50.946;6.954;2023-07-24T15:27:13;1.93;;;1.40;;
5129;SDS011;2583;50.946;6.954;2023-07-24T15:29:40;1.77;;;1.40;;
5129;SDS011;2583;50.946;6.954;2023-07-24T15:32:07;1.43;;;1.20;;
5129;SDS011;2583;50.946;6.954;2023-07-24T15:34:34;2.27;;;1.33;;